Time;durP1;ratioP1;P1;durP2;ratioP2;P2;SDS_P1;SDS_P2;PMS_P1;PMS_P2;Temp;Humidity;BMP_temperature;BMP_pressure;BME280_temperature;BME280_humidity;BME280_pressure;Samples;Min_cycle;Max_cycle;Signal;HPM_P1;HPM_P2
2022/09/06 00:01:40;;;;;;;;;;;;;;;15.92;63.82;101610.81;5133584;27;20023;-81
2022/09/06 00:04:05;;;;;;;;;;;;;;;15.80;64.20;101613.91;5133291;27;20609;-81
2022/09/06 00:06:31;;;;;;;;;;;;;;;15.81;65.03;101606.63;5114259;27;19911;-81
2022/09/06 00:08:56;;;;;;;6.93;3.40;;;;;;;15.76;65.54;101611.72;5097273;27;19933;-83
2022/09/06 00:11:21;;;;;;;;;;;;;;;15.73;65.24;101615.63;5133708;27;20027;-81
2022/09/06 00:13:47;;;;;;;7.30;3.27;;;;;;;15.66;65.17;101609.13;5114710;27;20367;-84
2022/09/06 00:16:13;;;;;;;;;;;;;;;15.66;65.36;101613.72;5133164;27;20088;-81
2022/09/06 00:18:39;;;;;;;10.07;3.22;;;;;;;15.53;65.94;101614.25;5132832;27;19911;-81
2022/09/06 00:21:17;;;;;;;7.80;3.30;;;;;;;15.52;65.48;101588.16;5114257;27;20027;-81
2022/09/06 00:23:42;;;;;;;6.88;3.40;;;;;;;15.48;65.61;101584.94;5132657;27;20027;-81
2022/09/06 00:26:08;;;;;;;6.40;3.42;;;;;;;15.52;65.77;101599.00;5114200;27;20031;-80
2022/09/06 00:28:33;;;;;;;;;;;;;;;15.58;65.40;101601.03;5097707;27;20467;-81
2022/09/06 00:31:07;;;;;;;4.47;3.40;;;;;;;15.53;65.45;101592.56;5132649;27;19951;-81
2022/09/06 00:33:32;;;;;;;6.03;3.47;;;;;;;15.43;65.48;101591.88;5114111;27;20050;-81
2022/09/06 00:35:58;;;;;;;7.70;3.78;;;;;;;15.44;65.93;101588.16;5113918;27;20509;-82
2022/09/06 00:38:24;;;;;;;;;;;;;;;15.57;65.42;101599.34;5114825;27;20035;-81
2022/09/06 00:40:49;;;;;;;7.28;3.70;;;;;;;15.49;65.74;101597.47;5113792;27;19956;-81
2022/09/06 00:43:14;;;;;;;;;;;;;;;15.51;65.89;101605.44;5114440;27;20402;-82
2022/09/06 00:45:40;;;;;;;6.17;3.20;;;;;;;15.48;65.99;101603.91;5132239;27;19918;-81
2022/09/06 00:48:05;;;;;;;6.90;3.55;;;;;;;15.51;65.70;101610.84;5131995;27;20264;-81
2022/09/06 00:50:31;;;;;;;5.50;3.40;;;;;;;15.47;65.72;101595.94;5113805;27;20031;-81
2022/09/06 00:52:56;;;;;;;;;;;;;;;15.50;65.87;101604.59;5114405;27;20475;-81
2022/09/06 00:55:23;;;;;;;6.72;3.47;;;;;;;15.38;66.71;101606.81;5132128;27;19907;-83
2022/09/06 00:57:50;;;;;;;9.35;3.85;;;;;;;15.30;67.33;101612.22;5131873;27;20490;-82
2022/09/06 01:00:16;;;;;;;10.90;3.95;;;;;;;15.26;67.31;101594.59;5113927;27;20087;-81
2022/09/06 01:02:42;;;;;;;7.45;3.78;;;;;;;15.33;67.43;101603.72;5096539;27;20122;-81
2022/09/06 01:05:08;;;;;;;5.53;3.65;;;;;;;15.24;68.38;101607.50;5079544;27;20486;-82
2022/09/06 01:07:42;;;;;;;;;;;;;;;15.29;68.24;101617.78;5132297;27;20034;-80
2022/09/06 01:10:17;;;;;;;6.60;3.63;;;;;;;15.11;68.75;101615.25;5132015;27;19911;-81
2022/09/06 01:12:50;;;;;;;9.68;3.83;;;;;;;15.17;68.27;101619.97;5132125;27;20027;-81
2022/09/06 01:15:40;;;;;;;12.23;4.00;;;;;;;15.09;68.56;101615.41;5097440;27;20063;-81
2022/09/06 01:18:27;;;;;;;8.77;3.60;;;;;;;15.04;68.63;101609.66;5131787;27;20039;-81
2022/09/06 01:21:21;;;;;;;5.75;3.55;;;;;;;14.99;68.95;101612.84;5116347;27;20039;-83
2022/09/06 01:24:03;;;;;;;9.23;4.00;;;;;;;14.92;68.83;101611.84;5109569;27;20039;-83
2022/09/06 01:26:37;;;;;;;9.07;4.03;;;;;;;14.93;68.83;101615.38;5131397;27;20037;-80
2022/09/06 01:29:05;;;;;;;7.70;3.88;;;;;;;14.92;69.31;101611.84;5131667;27;20490;-80
2022/09/06 01:31:37;;;;;;;9.02;3.60;;;;;;;14.79;69.25;101614.16;5096607;28;20471;-81
2022/09/06 01:34:02;;;;;;;8.20;3.92;;;;;;;14.88;68.93;101621.28;5097119;27;20426;-80
2022/09/06 01:36:31;;;;;;;9.10;4.03;;;;;;;14.80;68.75;101591.50;5131064;27;20031;-81
2022/09/06 01:38:57;;;;;;;8.55;3.95;;;;;;;14.88;69.03;101617.75;5096525;27;20063;-82
2022/09/06 01:41:22;;;;;;;5.40;3.83;;;;;;;14.84;68.91;101603.69;5131449;27;20092;-81
2022/09/06 01:43:48;;;;;;;;;;;;;;;14.94;69.02;101615.22;5113367;27;20414;-82
2022/09/06 01:47:04;;;;;;;9.32;4.00;;;;;;;14.94;68.81;101622.50;5131551;27;20393;-80
2022/09/06 01:49:50;;;;;;;10.30;3.90;;;;;;;14.81;69.17;101609.44;5028181;28;20033;-80
2022/09/06 01:52:55;;;;;;;11.05;4.25;;;;;;;14.71;69.47;101600.63;4996592;28;20037;-81
2022/09/06 01:55:48;;;;;;;9.10;4.18;;;;;;;14.71;69.98;101611.44;5102511;28;20475;-82
2022/09/06 01:58:41;;;;;;;7.00;3.92;;;;;;;14.69;69.64;101608.91;5131169;28;20039;-81
2022/09/06 02:01:39;;;;;;;11.80;4.20;;;;;;;14.77;69.38;101600.81;5131070;28;20055;-81
2022/09/06 02:04:21;;;;;;;6.75;4.00;;;;;;;14.62;70.09;101602.44;5091738;28;20499;-80
2022/09/06 02:06:49;;;;;;;9.77;4.15;;;;;;;14.43;69.61;101564.81;5079485;28;20031;-82
2022/09/06 02:09:20;;;;;;;7.88;3.90;;;;;;;14.57;69.97;101586.72;5096135;28;20083;-81
2022/09/06 02:11:51;;;;;;;8.98;4.05;;;;;;;14.59;70.05;101594.66;5096228;28;20034;-81
2022/09/06 02:14:38;;;;;;;9.15;4.30;;;;;;;14.49;70.01;101583.97;5112698;28;20456;-81
2022/09/06 02:17:04;;;;;;;7.50;3.80;;;;;;;14.40;70.10;101579.53;5097775;28;20093;-81
2022/09/06 02:19:42;;;;;;;6.10;4.20;;;;;;;14.42;70.36;101577.50;5095962;28;20406;-82
2022/09/06 02:22:09;;;;;;;6.57;4.20;;;;;;;14.48;70.41;101584.94;5113000;28;20115;-81
2022/09/06 02:24:36;;;;;;;8.15;4.03;;;;;;;14.43;70.98;101587.31;5130848;28;20026;-81
2022/09/06 02:27:01;;;;;;;7.55;4.47;;;;;;;14.50;70.78;101585.63;5112718;27;20099;-81
2022/09/06 02:29:27;;;;;;;11.20;4.50;;;;;;;14.38;70.87;101575.28;5115295;27;20043;-81
2022/09/06 02:31:59;;;;;;;9.60;4.55;;;;;;;14.34;70.71;101574.75;5116386;27;20043;-81
2022/09/06 02:34:25;;;;;;;10.57;4.55;;;;;;;14.41;70.81;101583.06;5099793;27;20360;-81
2022/09/06 02:36:50;;;;;;;7.93;5.07;;;;;;;14.40;71.04;101579.53;5134802;27;20038;-82
2022/09/06 02:39:16;;;;;;;8.98;4.63;;;;;;;14.40;70.84;101582.25;5116206;27;20035;-81
2022/09/06 02:41:42;;;;;;;14.07;4.90;;;;;;;14.36;71.16;101575.44;5134805;27;20042;-81
2022/09/06 02:44:07;;;;;;;;;;;;;;;14.43;71.06;101573.78;5116843;27;20047;-81
2022/09/06 02:46:33;;;;;;;12.88;5.80;;;;;;;14.33;70.95;101563.09;5134662;27;20477;-81
2022/09/06 02:48:58;;;;;;;17.27;5.18;;;;;;;14.27;70.84;101546.69;5134852;27;20471;-81
2022/09/06 02:51:24;;;;;;;16.88;5.13;;;;;;;14.26;70.89;101556.66;5134525;27;20027;-81
2022/09/06 02:53:50;;;;;;;12.30;5.22;;;;;;;14.39;71.18;101577.81;5115810;27;20056;-83
2022/09/06 02:56:15;;;;;;;12.25;5.82;;;;;;;14.32;71.18;101582.19;5135091;27;20043;-82
2022/09/06 02:58:41;;;;;;;8.77;5.55;;;;;;;14.20;71.55;101576.22;5112714;28;20040;-81
2022/09/06 03:01:07;;;;;;;7.38;5.50;;;;;;;14.08;71.68;101550.50;5113533;28;20074;-81
2022/09/06 03:03:32;;;;;;;10.43;5.57;;;;;;;14.22;71.60;101574.22;5113991;28;20035;-81
2022/09/06 03:05:58;;;;;;;13.35;5.70;;;;;;;14.00;71.89;101556.72;5113597;28;20050;-82
2022/09/06 03:08:25;;;;;;;11.93;5.90;;;;;;;14.03;71.50;101569.91;5112725;28;20038;-79
2022/09/06 03:10:52;;;;;;;11.15;5.78;;;;;;;14.09;71.95;101581.91;5113872;28;20035;-82
2022/09/06 03:13:17;;;;;;;12.63;5.60;;;;;;;14.08;71.77;101566.72;5095553;28;20408;-82
2022/09/06 03:15:43;;;;;;;12.20;5.88;;;;;;;14.10;71.38;101579.06;5114029;28;20487;-81
2022/09/06 03:18:08;;;;;;;8.38;5.43;;;;;;;14.06;71.46;101577.69;5113326;28;20074;-81
2022/09/06 03:20:34;;;;;;;8.50;5.72;;;;;;;14.03;71.11;101561.78;5113499;28;20027;-82
2022/09/06 03:22:59;;;;;;;14.20;5.63;;;;;;;13.93;70.86;101563.78;5113240;28;20509;-83
2022/09/06 03:25:25;;;;;;;8.18;5.53;;;;;;;14.04;70.81;101571.59;5095751;28;20061;-81
2022/09/06 03:27:50;;;;;;;12.77;5.75;;;;;;;13.98;70.68;101561.44;5113113;28;20126;-82
2022/09/06 03:30:16;;;;;;;13.63;6.10;;;;;;;13.93;70.72;101567.31;5113906;28;20027;-80
2022/09/06 03:32:41;;;;;;;12.30;5.90;;;;;;;14.06;70.58;101588.50;5112070;28;20038;-82
2022/09/06 03:35:08;;;;;;;9.85;5.72;;;;;;;13.98;70.93;101574.06;5096121;28;20043;-81
2022/09/06 03:37:33;;;;;;;12.30;5.93;;;;;;;13.94;70.57;101562.75;5113082;28;20043;-81
2022/09/06 03:39:59;;;;;;;10.77;5.68;;;;;;;14.04;70.55;101581.56;5113518;28;20460;-82
2022/09/06 03:42:25;;;;;;;12.48;5.88;;;;;;;13.98;70.70;101574.94;5094960;28;20027;-82
2022/09/06 03:44:52;;;;;;;12.25;6.30;;;;;;;14.08;70.65;101574.81;5113029;28;20031;-81
2022/09/06 03:47:17;;;;;;;16.15;6.65;;;;;;;14.08;70.38;101572.13;5094456;28;20384;-83
2022/09/06 03:49:44;;;;;;;15.20;6.38;;;;;;;13.94;70.33;101560.06;5112096;28;20042;-82
2022/09/06 03:52:09;;;;;;;14.60;6.80;;;;;;;14.12;70.66;101579.75;5113156;27;20028;-81
2022/09/06 03:54:35;;;;;;;10.90;5.97;;;;;;;14.05;69.99;101573.28;5112931;28;20028;-82
2022/09/06 03:57:00;;;;;;;19.52;6.45;;;;;;;14.07;70.32;101590.22;5112810;28;20444;-82
2022/09/06 03:59:26;;;;;;;14.38;7.00;;;;;;;14.04;70.26;101590.50;5111133;28;20139;-82
2022/09/06 04:01:51;;;;;;;16.23;6.38;;;;;;;13.96;70.33;101579.66;5094356;28;20100;-81
2022/09/06 04:04:17;;;;;;;14.27;6.65;;;;;;;14.10;69.90;101592.56;5112887;28;20023;-81
2022/09/06 04:06:42;;;;;;;14.45;6.68;;;;;;;14.10;69.59;101584.47;5110769;28;20119;-81
2022/09/06 04:09:07;;;;;;;14.43;6.90;;;;;;;14.17;69.54;101594.66;5113044;28;20332;-82
2022/09/06 04:11:33;;;;;;;15.48;6.70;;;;;;;14.20;69.88;101599.72;5112613;28;20035;-81
2022/09/06 04:13:58;;;;;;;17.45;7.53;;;;;;;14.23;69.67;101588.56;5111885;28;20112;-82
2022/09/06 04:16:24;;;;;;;13.38;7.85;;;;;;;14.26;69.39;101596.38;5113292;28;20042;-82
2022/09/06 04:18:49;;;;;;;20.45;7.35;;;;;;;14.24;69.56;101596.53;5113326;28;20501;-82
2022/09/06 04:21:15;;;;;;;16.35;7.57;;;;;;;14.21;69.53;101591.47;5110812;28;20032;-82
2022/09/06 04:23:40;;;;;;;12.07;7.60;;;;;;;14.26;69.76;101593.69;5112237;28;20030;-80
2022/09/06 04:26:06;;;;;;;23.08;10.55;;;;;;;14.23;69.59;101597.53;5112102;28;20036;-81
2022/09/06 04:28:31;;;;;;;18.60;8.50;;;;;;;14.27;69.67;101585.38;5111942;28;20063;-82
2022/09/06 04:30:58;;;;;;;17.58;8.13;;;;;;;14.24;69.44;101584.88;5112429;28;20032;-81
2022/09/06 04:33:24;;;;;;;12.80;8.23;;;;;;;14.35;69.29;101593.53;5110812;28;20023;-82
2022/09/06 04:35:53;;;;;;;;;;;;;;;14.41;69.18;101589.31;5112197;28;20031;-81
2022/09/06 04:38:18;;;;;;;19.00;8.13;;;;;;;14.32;69.61;101593.00;5110862;28;19904;-81
2022/09/06 04:40:44;;;;;;;20.60;8.45;;;;;;;14.45;69.16;101587.16;5111877;28;20031;-81
2022/09/06 04:43:09;;;;;;;14.57;7.90;;;;;;;14.48;69.39;101582.25;5093759;28;20039;-81
2022/09/06 04:45:35;;;;;;;15.90;8.07;;;;;;;14.65;68.77;101601.28;5111785;28;20038;-82
2022/09/06 04:48:00;;;;;;;12.30;7.22;;;;;;;14.74;68.43;101597.56;5110480;28;20577;-81
2022/09/06 04:50:26;;;;;;;17.35;8.40;;;;;;;14.68;69.01;101604.50;5111379;28;20511;-81
2022/09/06 04:52:51;;;;;;;12.02;8.18;;;;;;;14.75;68.83;101602.00;5111329;28;20483;-81
2022/09/06 04:55:16;;;;;;;;;;;;;;;14.90;68.21;101596.78;5112277;28;20092;-83
2022/09/06 04:57:42;;;;;;;16.33;7.67;;;;;;;14.86;67.78;101596.25;5111641;28;19994;-81
2022/09/06 05:00:08;;;;;;;18.33;7.82;;;;;;;14.91;67.52;101591.19;5091244;28;20063;-83
2022/09/06 05:02:34;;;;;;;22.38;8.27;;;;;;;14.98;67.48;101588.66;5106754;28;20028;-81
2022/09/06 05:04:59;;;;;;;14.18;8.05;;;;;;;15.01;66.68;101591.03;5089749;28;20497;-81
2022/09/06 05:07:25;;;;;;;13.32;7.53;;;;;;;15.08;66.42;101585.81;5091067;28;20035;-81
2022/09/06 05:09:50;;;;;;;14.70;7.75;;;;;;;15.16;66.30;101574.97;5091039;28;20078;-82
2022/09/06 05:12:15;;;;;;;;;;;;;;;15.25;66.30;101601.03;5091843;28;20047;-81
2022/09/06 05:14:41;;;;;;;17.87;8.10;;;;;;;15.32;65.85;101595.78;5090930;28;19916;-81
2022/09/06 05:17:06;;;;;;;;;;;;;;;15.44;65.83;101604.44;5091315;28;20523;-81
2022/09/06 05:19:32;;;;;;;13.80;7.03;;;;;;;15.60;65.47;101607.97;5092086;28;19919;-80
2022/09/06 05:21:57;;;;;;;;;;;;;;;15.97;64.09;101600.31;5097005;28;20036;-81
2022/09/06 05:24:22;;;;;;;13.17;6.47;;;;;;;16.45;63.55;101609.28;5095957;28;20288;-81
2022/09/06 05:26:48;;;;;;;;;;;;;;;16.90;62.27;101612.31;5095891;28;20047;-79
2022/09/06 05:29:13;;;;;;;13.20;6.88;;;;;;;17.33;60.21;101605.38;5090087;28;19955;-80
2022/09/06 05:31:39;;;;;;;;;;;;;;;17.81;58.42;101605.13;5091359;28;20032;-81
2022/09/06 05:34:04;;;;;;;;;;;;;;;18.19;57.29;101614.09;5090906;28;20348;-79
2022/09/06 05:36:29;;;;;;;14.27;7.03;;;;;;;18.46;56.83;101600.81;5089408;28;19919;-80
2022/09/06 05:38:55;;;;;;;;;;;;;;;18.92;55.34;101601.41;5089595;28;20028;-80
2022/09/06 05:41:21;;;;;;;11.02;6.50;;;;;;;19.38;53.85;101608.31;5090656;28;19943;-82
2022/09/06 05:43:46;;;;;;;;;;;;;;;19.81;52.92;101608.31;5091379;28;20027;-80
2022/09/06 05:46:12;;;;;;;18.35;6.53;;;;;;;20.06;52.38;101596.91;5090490;28;19916;-80
2022/09/06 05:48:37;;;;;;;;;;;;;;;20.42;51.08;101602.13;5090969;28;20066;-80
2022/09/06 05:51:04;;;;;;;18.08;7.10;;;;;;;20.66;50.72;101600.78;5089262;28;19912;-80
2022/09/06 05:53:38;;;;;;;23.23;7.32;;;;;;;21.03;50.03;101601.31;5072782;28;20089;-81
2022/09/06 05:56:04;;;;;;;24.20;6.63;;;;;;;21.31;48.69;101597.56;5072406;28;20032;-81
2022/09/06 05:58:29;;;;;;;20.75;6.78;;;;;;;21.65;48.26;101599.25;5103519;28;20054;-81
2022/09/06 06:01:27;;;;;;;22.83;7.32;;;;;;;21.94;47.23;101600.72;5113192;28;20035;-81
2022/09/06 06:03:57;;;;;;;28.13;11.90;;;;;;;22.21;46.53;101597.94;5118079;27;20110;-82
2022/09/06 06:06:24;;;;;;;19.70;7.95;;;;;;;22.62;46.36;101607.69;5117157;27;20027;-81
2022/09/06 06:08:49;;;;;;;20.30;6.47;;;;;;;22.73;45.40;101579.56;5135776;27;20499;-81
2022/09/06 06:11:15;;;;;;;22.35;7.10;;;;;;;23.10;45.20;101596.25;5135578;27;20034;-81
2022/09/06 06:13:42;;;;;;;25.75;7.03;;;;;;;23.42;44.38;101596.25;5135471;27;20027;-82
2022/09/06 06:16:11;;;;;;;23.17;8.93;;;;;;;23.60;44.05;101601.78;5134814;27;20111;-81
2022/09/06 06:18:37;;;;;;;21.73;8.00;;;;;;;23.80;43.01;101580.47;5099424;27;20035;-81
2022/09/06 06:21:22;;;;;;;22.48;9.00;;;;;;;24.24;41.97;101594.19;5135450;27;20031;-81
2022/09/06 06:23:49;;;;;;;21.63;8.65;;;;;;;24.56;41.88;101594.00;5134960;27;20023;-81
2022/09/06 06:26:15;;;;;;;28.55;11.38;;;;;;;24.66;41.83;101602.56;5116855;27;20015;-81
2022/09/06 06:28:41;;;;;;;28.20;11.80;;;;;;;24.75;41.44;101603.91;5135000;27;20042;-82
2022/09/06 06:31:07;;;;;;;37.13;12.18;;;;;;;24.83;40.83;101600.84;5134774;27;20170;-81
2022/09/06 06:33:35;;;;;;;21.27;10.65;;;;;;;25.09;40.55;101590.50;5116830;27;20039;-81
2022/09/06 06:36:05;;;;;;;17.63;9.98;;;;;;;24.82;40.86;101599.16;5116421;27;20494;-81
2022/09/06 06:38:37;;;;;;;19.80;8.75;;;;;;;24.94;40.27;101592.88;5117505;27;20068;-81
2022/09/06 06:41:04;;;;;;;9.40;5.00;;;;;;;25.33;36.25;101594.19;5115802;27;20384;-82
2022/09/06 06:43:35;;;;;;;17.10;7.13;;;;;;;25.80;36.85;101594.22;5099155;27;20023;-82
2022/09/06 06:46:04;;;;;;;36.88;7.50;;;;;;;26.01;36.58;101572.66;5117154;27;20118;-82
2022/09/06 06:48:30;;;;;;;41.72;7.10;;;;;;;26.23;36.89;101587.50;5134706;27;20041;-81
2022/09/06 06:50:56;;;;;;;23.42;6.05;;;;;;;26.40;35.16;101595.00;5134494;27;20035;-82
2022/09/06 06:53:21;;;;;;;6.55;2.40;;;;;;;26.00;32.13;101599.38;5134305;27;20114;-81
2022/09/06 06:55:47;;;;;;;10.43;2.10;;;;;;;26.11;31.23;101589.44;5134523;27;20058;-82
2022/09/06 06:58:16;;;;;;;6.38;1.83;;;;;;;26.27;31.67;101596.97;5134481;27;20529;-82
2022/09/06 07:00:42;;;;;;;3.97;1.95;;;;;;;26.43;31.12;101591.75;5116334;27;20038;-82
2022/09/06 07:03:08;;;;;;;3.88;1.73;;;;;;;26.01;30.91;101592.81;5134551;27;20429;-82
2022/09/06 07:05:34;;;;;;;2.42;1.70;;;;;;;25.79;31.68;101598.03;5134280;27;20122;-83
2022/09/06 07:07:59;;;;;;;4.30;1.90;;;;;;;26.17;31.34;101598.63;5134007;27;20456;-81
2022/09/06 07:10:24;;;;;;;3.50;1.50;;;;;;;26.63;30.47;101583.09;5116260;27;20419;-82
2022/09/06 07:12:50;;;;;;;6.68;1.80;;;;;;;26.99;30.10;101597.53;5134608;27;20031;-83
2022/09/06 07:15:16;;;;;;;5.60;2.72;;;;;;;26.95;32.22;101599.97;5134146;27;20471;-83
2022/09/06 07:17:42;;;;;;;6.53;2.65;;;;;;;27.40;31.41;101593.59;5134253;27;20034;-81
2022/09/06 07:20:09;;;;;;;4.65;2.08;;;;;;;27.69;30.06;101596.25;5133923;27;20091;-81
2022/09/06 07:22:34;;;;;;;6.20;1.95;;;;;;;27.90;28.74;101591.91;5115630;27;20088;-82
2022/09/06 07:25:00;;;;;;;2.95;1.67;;;;;;;28.22;27.91;101608.66;5133860;27;20519;-81
2022/09/06 07:27:25;;;;;;;3.08;1.75;;;;;;;28.38;26.93;101602.25;5115068;27;20506;-81
2022/09/06 07:29:51;;;;;;;2.60;1.60;;;;;;;27.49;28.00;101608.66;5134054;27;20031;-81
2022/09/06 07:32:16;;;;;;;6.05;1.80;;;;;;;26.96;29.24;101598.88;5134142;27;20091;-81
2022/09/06 07:34:42;;;;;;;4.10;1.90;;;;;;;27.88;28.33;101603.19;5134158;27;20467;-81
2022/09/06 07:37:07;;;;;;;3.17;1.60;;;;;;;27.89;27.04;101601.31;5133610;27;20046;-82
2022/09/06 07:39:35;;;;;;;3.97;1.58;;;;;;;28.33;26.16;101601.31;5133608;27;20114;-82
2022/09/06 07:42:00;;;;;;;3.00;1.90;;;;;;;28.26;25.61;101587.72;5133853;27;20371;-81
2022/09/06 07:44:27;;;;;;;4.70;2.00;;;;;;;28.83;25.63;101612.19;5115226;27;20087;-82
2022/09/06 07:46:53;;;;;;;4.45;1.70;;;;;;;29.35;24.95;101610.78;5098129;27;20037;-83
2022/09/06 07:49:19;;;;;;;4.22;1.80;;;;;;;29.55;25.04;101615.66;5133360;27;20027;-83
2022/09/06 07:51:44;;;;;;;5.05;2.08;;;;;;;30.37;24.08;101602.34;5114941;27;20023;-82
2022/09/06 07:54:10;;;;;;;5.00;1.70;;;;;;;30.59;23.51;101607.66;5097827;27;20039;-81
2022/09/06 07:56:35;;;;;;;5.85;2.08;;;;;;;31.16;23.19;101608.63;5115370;27;20027;-82
2022/09/06 07:59:01;;;;;;;8.48;2.30;;;;;;;31.86;22.78;101606.13;5133043;27;20108;-82
2022/09/06 08:01:33;;;;;;;7.90;1.73;;;;;;;32.65;21.22;101608.38;5133314;27;20378;-83
2022/09/06 08:04:09;;;;;;;4.63;1.90;;;;;;;33.00;20.84;101602.56;5133362;27;20035;-83
2022/09/06 08:06:36;;;;;;;8.25;2.17;;;;;;;33.42;20.60;101603.13;5115166;27;20114;-81
2022/09/06 08:09:03;;;;;;;7.65;2.03;;;;;;;33.39;20.31;101603.72;5114463;27;20024;-81
2022/09/06 08:11:30;;;;;;;2.72;1.60;;;;;;;34.06;19.57;101623.41;5114749;27;20130;-82
2022/09/06 08:13:56;;;;;;;8.05;2.13;;;;;;;34.74;19.06;101590.75;5133783;27;20042;-81
2022/09/06 08:16:22;;;;;;;3.35;1.70;;;;;;;34.60;19.30;101612.97;5114533;27;20023;-81
2022/09/06 08:18:51;;;;;;;6.07;2.10;;;;;;;35.68;18.80;101612.16;5133437;27;20042;-81
2022/09/06 08:21:17;;;;;;;3.97;1.85;;;;;;;35.71;18.55;101597.56;5122395;27;20490;-83
2022/09/06 08:23:47;;;;;;;3.80;1.63;;;;;;;35.25;19.07;101606.75;5119768;27;20474;-80
2022/09/06 08:26:16;;;;;;;4.93;1.80;;;;;;;35.63;19.02;101595.47;5132605;27;20114;-81
2022/09/06 08:28:42;;;;;;;3.05;1.70;;;;;;;35.81;18.22;101596.56;5080366;27;20054;-82
2022/09/06 08:31:14;;;;;;;4.53;2.40;;;;;;;36.40;17.82;101602.38;5113649;27;20526;-81
2022/09/06 08:33:40;;;;;;;3.70;2.10;;;;;;;35.22;19.29;101590.59;5132580;27;20031;-82
2022/09/06 08:36:06;;;;;;;4.22;1.80;;;;;;;34.75;19.84;101589.66;5131927;27;20474;-83
2022/09/06 08:38:31;;;;;;;7.47;2.47;;;;;;;34.97;20.03;101578.66;5113593;27;20027;-82
2022/09/06 08:41:15;;;;;;;7.90;2.20;;;;;;;34.76;20.12;101594.09;5097032;27;20058;-81
2022/09/06 08:44:10;;;;;;;7.72;2.22;;;;;;;32.92;21.46;101602.34;5132259;27;20113;-82
2022/09/06 08:46:37;;;;;;;5.07;1.80;;;;;;;31.42;23.81;101603.13;5130606;27;20039;-80
2022/09/06 08:49:04;;;;;;;3.28;1.73;;;;;;;32.55;22.94;101593.41;5097312;27;20023;-82
2022/09/06 08:51:38;;;;;;;5.22;1.80;;;;;;;32.64;23.27;101592.78;5096773;27;20035;-81
2022/09/06 08:54:08;;;;;;;7.65;2.08;;;;;;;34.47;20.97;101576.31;5114090;27;20042;-81
2022/09/06 08:56:36;;;;;;;6.63;2.20;;;;;;;35.36;19.41;101579.47;5113494;27;20039;-82
2022/09/06 08:59:06;;;;;;;5.35;2.05;;;;;;;35.27;18.86;101582.13;5096692;27;20088;-81
2022/09/06 09:02:01;;;;;;;5.78;2.00;;;;;;;35.81;18.88;101591.78;5114551;27;20547;-81
2022/09/06 09:04:27;;;;;;;5.15;2.08;;;;;;;36.54;18.19;101580.75;5120115;27;20038;-81
2022/09/06 09:06:57;;;;;;;4.43;2.20;;;;;;;37.79;17.50;101586.63;5113694;27;20490;-81
2022/09/06 09:09:22;;;;;;;3.65;1.77;;;;;;;37.22;17.24;101586.47;5113581;27;20031;-81
2022/09/06 09:11:49;;;;;;;3.78;1.60;;;;;;;36.84;17.63;101575.63;5096971;27;20034;-81
2022/09/06 09:14:15;;;;;;;8.95;2.03;;;;;;;35.53;19.92;101584.47;5096601;27;20070;-81
2022/09/06 09:16:41;;;;;;;5.28;1.98;;;;;;;35.42;19.29;101565.06;5131971;27;20069;-82
2022/09/06 09:19:08;;;;;;;4.90;1.90;;;;;;;36.49;18.83;101569.69;5132152;27;20030;-81
2022/09/06 09:21:35;;;;;;;4.68;2.05;;;;;;;36.31;18.27;101563.88;5113367;27;20049;-82
2022/09/06 09:24:06;;;;;;;3.50;2.22;;;;;;;35.61;19.09;101558.59;5096684;27;20119;-82
2022/09/06 09:26:37;;;;;;;6.95;2.22;;;;;;;36.99;18.38;101558.41;5096477;27;20077;-81
2022/09/06 09:29:03;;;;;;;4.22;2.38;;;;;;;35.81;19.61;101562.97;5097157;27;20117;-82
2022/09/06 09:31:39;;;;;;;3.42;2.20;;;;;;;38.21;17.17;101565.53;5131484;27;20423;-81
2022/09/06 09:34:04;;;;;;;4.07;1.95;;;;;;;38.39;17.12;101560.75;5131756;27;20030;-81
2022/09/06 09:36:31;;;;;;;3.25;2.20;;;;;;;39.16;16.09;101543.41;5113310;27;20023;-81
2022/09/06 09:38:57;;;;;;;4.22;2.40;;;;;;;40.63;15.07;101549.50;5113178;28;20031;-81
2022/09/06 09:41:25;;;;;;;5.70;2.10;;;;;;;40.84;14.86;101552.34;5096127;27;20038;-82
2022/09/06 09:43:59;;;;;;;4.20;2.00;;;;;;;38.33;16.78;101558.41;5131661;27;20115;-82
2022/09/06 09:46:28;;;;;;;3.33;1.70;;;;;;;38.48;16.69;101560.78;5113651;28;20035;-80
2022/09/06 09:49:11;;;;;;;3.85;1.80;;;;;;;40.27;15.42;101548.09;5132059;27;20442;-81
2022/09/06 09:51:43;;;;;;;3.40;1.90;;;;;;;40.74;15.15;101564.84;5132200;27;20039;-81
2022/09/06 09:54:13;;;;;;;3.05;2.03;;;;;;;38.38;16.81;101542.25;5131321;28;20035;-81
2022/09/06 09:56:45;;;;;;;2.63;1.95;;;;;;;36.25;19.19;101551.16;5095862;28;20505;-81
2022/09/06 09:59:33;;;;;;;3.80;1.90;;;;;;;36.89;18.47;101545.50;5131089;28;20051;-81
2022/09/06 10:02:00;;;;;;;4.78;2.00;;;;;;;38.08;17.68;101551.63;5112692;28;20032;-81
2022/09/06 10:04:42;;;;;;;4.30;2.03;;;;;;;38.53;17.22;101551.38;5096129;28;20031;-81
2022/09/06 10:07:22;;;;;;;4.00;1.80;;;;;;;41.04;15.15;101545.81;5131073;28;20113;-80
2022/09/06 10:09:48;;;;;;;4.97;1.90;;;;;;;42.02;14.13;101544.34;5095892;28;20075;-80
2022/09/06 10:12:27;;;;;;;5.88;2.25;;;;;;;39.88;15.10;101533.28;5131194;28;20034;-81
2022/09/06 10:14:53;;;;;;;3.05;1.80;;;;;;;40.38;14.84;101532.47;5112918;28;20121;-81
2022/09/06 10:17:20;;;;;;;3.58;2.00;;;;;;;40.40;15.14;101532.13;5131102;28;20051;-81
2022/09/06 10:19:47;;;;;;;4.75;2.28;;;;;;;39.86;15.19;101521.53;5131420;28;20027;-81
2022/09/06 10:22:20;;;;;;;3.33;1.70;;;;;;;38.92;16.08;101533.53;5112978;28;20031;-81
2022/09/06 10:24:46;;;;;;;6.72;1.77;;;;;;;36.71;17.79;101535.28;5131344;28;20030;-81
2022/09/06 10:27:11;;;;;;;3.45;1.67;;;;;;;32.40;22.96;101523.88;5131390;28;20027;-80
2022/09/06 10:29:39;;;;;;;7.43;1.73;;;;;;;33.22;22.37;101510.25;5095418;28;20387;-79
2022/09/06 10:32:52;;;;;;;6.53;1.90;;;;;;;34.15;21.60;101524.00;5112420;28;20031;-80
2022/09/06 10:35:26;;;;;;;3.38;2.05;;;;;;;36.25;18.86;101520.38;5108792;28;20084;-81
2022/09/06 10:38:07;;;;;;;4.63;2.10;;;;;;;37.30;17.59;101512.78;5095767;28;20031;-79
2022/09/06 10:40:46;;;;;;;3.65;1.80;;;;;;;36.08;19.05;101506.16;5131085;28;20038;-80
2022/09/06 10:43:16;;;;;;;3.33;1.88;;;;;;;37.41;18.15;101502.13;5097588;28;20118;-80
2022/09/06 10:46:18;;;;;;;2.75;1.70;;;;;;;37.85;16.83;101509.59;5130892;28;20042;-80
2022/09/06 10:48:44;;;;;;;5.37;1.70;;;;;;;36.26;18.19;101498.81;5027678;28;20501;-80
2022/09/06 10:51:31;;;;;;;6.88;1.70;;;;;;;36.53;17.35;101500.69;5114354;27;20042;-80
2022/09/06 10:53:59;;;;;;;5.45;1.70;;;;;;;37.41;17.21;101496.53;5134720;27;20031;-80
2022/09/06 10:56:54;;;;;;;3.25;1.77;;;;;;;37.27;17.46;101496.63;5134251;27;20031;-80
2022/09/06 10:59:33;;;;;;;2.67;1.60;;;;;;;37.94;16.49;101499.22;5115767;27;20043;-80
2022/09/06 11:02:08;;;;;;;4.03;1.75;;;;;;;37.03;17.39;101503.38;5134947;27;20042;-79
2022/09/06 11:04:38;;;;;;;5.63;1.63;;;;;;;36.63;16.85;101483.66;5115997;27;20027;-79
2022/09/06 11:07:11;;;;;;;6.07;1.73;;;;;;;36.20;17.69;101500.91;5116252;27;20491;-80
2022/09/06 11:10:08;;;;;;;5.78;1.73;;;;;;;36.10;17.29;101495.50;5134014;27;20491;-79
2022/09/06 11:12:48;;;;;;;3.97;1.80;;;;;;;36.14;17.80;101505.78;5114440;27;20072;-80
2022/09/06 11:15:14;;;;;;;3.08;1.60;;;;;;;33.50;19.92;101490.97;5116648;27;20030;-79
2022/09/06 11:17:52;;;;;;;4.82;1.70;;;;;;;33.55;19.50;101492.88;5119568;27;20031;-80
2022/09/06 11:20:32;;;;;;;4.72;1.92;;;;;;;33.31;19.90;101479.75;5136684;27;20469;-81
2022/09/06 11:23:04;;;;;;;4.72;1.70;;;;;;;33.26;19.96;101490.97;5119304;27;20456;-80
2022/09/06 11:26:08;;;;;;;4.25;1.73;;;;;;;32.07;21.67;101475.38;5134827;27;20027;-80
2022/09/06 11:28:53;;;;;;;5.45;1.80;;;;;;;31.11;22.95;101472.56;5070742;27;20062;-80
2022/09/06 11:31:30;;;;;;;5.30;1.80;;;;;;;31.35;23.07;101478.34;5133753;27;20087;-80
2022/09/06 11:34:22;;;;;;;5.82;1.73;;;;;;;30.05;24.62;101469.34;5099562;27;20523;-80
2022/09/06 11:36:51;;;;;;;4.68;2.00;;;;;;;29.95;25.09;101480.41;5115121;27;20434;-80
2022/09/06 11:39:34;;;;;;;3.60;1.65;;;;;;;30.44;24.10;101478.06;5133928;27;20035;-80